sensor_id;sensor_type;location;lat;lon;timestamp;temperature;humidity
71291;DHT22;59073;51.994;4.448;2022-09-24T00:00:44;15.36;85.71
71291;DHT22;59073;51.994;4.448;2022-09-24T00:03:10;15.39;85.65
71291;DHT22;59073;51.994;4.448;2022-09-24T00:05:40;15.41;85.68
71291;DHT22;59073;51.994;4.448;2022-09-24T00:08:07;15.43;85.77
71291;DHT22;59073;51.994;4.448;2022-09-24T00:10:37;15.44;85.55
71291;DHT22;59073;51.994;4.448;2022-09-24T00:13:04;15.58;85.41
71291;DHT22;59073;51.994;4.448;2022-09-24T00:15:35;15.74;84.99
71291;DHT22;59073;51.994;4.448;2022-09-24T00:18:00;15.78;84.72
71291;DHT22;59073;51.994;4.448;2022-09-24T00:20:29;15.88;84.57
71291;DHT22;59073;51.994;4.448;2022-09-24T00:22:54;15.98;84.41
71291;DHT22;59073;51.994;4.448;2022-09-24T00:25:20;16.05;83.92
71291;DHT22;59073;51.994;4.448;2022-09-24T00:28:03;16.00;83.72
71291;DHT22;59073;51.994;4.448;2022-09-24T00:30:29;15.94;84.01
71291;DHT22;59073;51.994;4.448;2022-09-24T00:32:54;15.95;83.91
71291;DHT22;59073;51.994;4.448;2022-09-24T00:35:19;16.04;84.05
71291;DHT22;59073;51.994;4.448;2022-09-24T00:37:45;16.00;83.70
71291;DHT22;59073;51.994;4.448;2022-09-24T00:40:10;16.06;83.64
71291;DHT22;59073;51.994;4.448;2022-09-24T00:42:36;16.04;83.63
71291;DHT22;59073;51.994;4.448;2022-09-24T00:45:01;16.09;83.71
71291;DHT22;59073;51.994;4.448;2022-09-24T00:47:54;15.95;83.44
71291;DHT22;59073;51.994;4.448;2022-09-24T00:50:29;16.00;83.62
71291;DHT22;59073;51.994;4.448;2022-09-24T00:52:56;15.94;83.47
71291;DHT22;59073;51.994;4.448;2022-09-24T00:55:26;15.94;83.69
71291;DHT22;59073;51.994;4.448;2022-09-24T00:57:56;15.94;83.69
71291;DHT22;59073;51.994;4.448;2022-09-24T01:00:22;15.92;83.55
71291;DHT22;59073;51.994;4.448;2022-09-24T01:02:54;15.90;83.48
71291;DHT22;59073;51.994;4.448;2022-09-24T01:05:21;15.90;83.58
71291;DHT22;59073;51.994;4.448;2022-09-24T01:07:47;15.95;83.59
71291;DHT22;59073;51.994;4.448;2022-09-24T01:10:14;16.00;83.41
71291;DHT22;59073;51.994;4.448;2022-09-24T01:13:13;16.05;83.21
71291;DHT22;59073;51.994;4.448;2022-09-24T01:15:54;16.11;83.07
71291;DHT22;59073;51.994;4.448;2022-09-24T01:18:34;16.11;82.85
71291;DHT22;59073;51.994;4.448;2022-09-24T01:21:20;15.97;83.18
71291;DHT22;59073;51.994;4.448;2022-09-24T01:32:16;15.74;83.96
71291;DHT22;59073;51.994;4.448;2022-09-24T01:35:04;15.62;84.29
71291;DHT22;59073;51.994;4.448;2022-09-24T01:37:36;15.55;84.30
71291;DHT22;59073;51.994;4.448;2022-09-24T01:40:06;15.53;84.87
71291;DHT22;59073;51.994;4.448;2022-09-24T01:42:33;15.54;84.85
71291;DHT22;59073;51.994;4.448;2022-09-24T01:45:02;15.46;84.69
71291;DHT22;59073;51.994;4.448;2022-09-24T01:47:34;15.46;84.91
71291;DHT22;59073;51.994;4.448;2022-09-24T01:50:17;15.44;84.91
71291;DHT22;59073;51.994;4.448;2022-09-24T01:55:29;15.40;85.35
71291;DHT22;59073;51.994;4.448;2022-09-24T01:58:14;15.41;84.71
71291;DHT22;59073;51.994;4.448;2022-09-24T02:00:45;15.49;84.99
71291;DHT22;59073;51.994;4.448;2022-09-24T02:03:16;15.49;84.44
71291;DHT22;59073;51.994;4.448;2022-09-24T02:05:54;15.41;84.70
71291;DHT22;59073;51.994;4.448;2022-09-24T02:08:32;15.40;84.90
71291;DHT22;59073;51.994;4.448;2022-09-24T02:11:08;15.41;85.19
71291;DHT22;59073;51.994;4.448;2022-09-24T02:16:54;15.62;84.36
71291;DHT22;59073;51.994;4.448;2022-09-24T02:19:28;15.64;84.29
71291;DHT22;59073;51.994;4.448;2022-09-24T02:21:57;15.68;84.00
71291;DHT22;59073;51.994;4.448;2022-09-24T02:27:05;15.49;84.50
71291;DHT22;59073;51.994;4.448;2022-09-24T02:29:31;15.41;84.53
71291;DHT22;59073;51.994;4.448;2022-09-24T02:31:58;15.47;84.62
71291;DHT22;59073;51.994;4.448;2022-09-24T02:34:41;15.31;84.97
71291;DHT22;59073;51.994;4.448;2022-09-24T02:37:10;15.44;84.64
71291;DHT22;59073;51.994;4.448;2022-09-24T02:39:36;15.50;84.51
71291;DHT22;59073;51.994;4.448;2022-09-24T02:42:05;15.50;84.68
71291;DHT22;59073;51.994;4.448;2022-09-24T02:44:31;15.49;84.62
71291;DHT22;59073;51.994;4.448;2022-09-24T02:46:58;15.53;84.69
71291;DHT22;59073;51.994;4.448;2022-09-24T02:49:23;15.58;84.44
71291;DHT22;59073;51.994;4.448;2022-09-24T02:51:49;15.64;84.26
71291;DHT22;59073;51.994;4.448;2022-09-24T02:54:14;15.64;84.24
71291;DHT22;59073;51.994;4.448;2022-09-24T02:56:40;15.57;84.53
71291;DHT22;59073;51.994;4.448;2022-09-24T02:59:06;15.64;84.53
71291;DHT22;59073;51.994;4.448;2022-09-24T03:01:32;15.64;84.35
71291;DHT22;59073;51.994;4.448;2022-09-24T03:03:58;15.62;84.04
71291;DHT22;59073;51.994;4.448;2022-09-24T03:06:24;15.58;84.41
71291;DHT22;59073;51.994;4.448;2022-09-24T03:08:50;15.62;84.39
71291;DHT22;59073;51.994;4.448;2022-09-24T03:11:17;15.68;84.47
71291;DHT22;59073;51.994;4.448;2022-09-24T03:13:43;15.68;84.26
71291;DHT22;59073;51.994;4.448;2022-09-24T03:16:08;15.68;84.33
71291;DHT22;59073;51.994;4.448;2022-09-24T03:18:34;15.62;84.03
71291;DHT22;59073;51.994;4.448;2022-09-24T03:21:05;15.65;84.44
71291;DHT22;59073;51.994;4.448;2022-09-24T03:23:33;15.70;84.33
71291;DHT22;59073;51.994;4.448;2022-09-24T03:25:59;15.67;84.27
71291;DHT22;59073;51.994;4.448;2022-09-24T03:28:25;15.72;84.30
71291;DHT22;59073;51.994;4.448;2022-09-24T03:30:51;15.74;84.05
71291;DHT22;59073;51.994;4.448;2022-09-24T03:35:57;15.78;84.13
71291;DHT22;59073;51.994;4.448;2022-09-24T03:38:23;15.90;84.02
71291;DHT22;59073;51.994;4.448;2022-09-24T03:40:48;15.98;83.94
71291;DHT22;59073;51.994;4.448;2022-09-24T03:43:14;16.09;83.26
71291;DHT22;59073;51.994;4.448;2022-09-24T03:45:39;16.06;83.05
71291;DHT22;59073;51.994;4.448;2022-09-24T03:48:04;16.06;83.31
71291;DHT22;59073;51.994;4.448;2022-09-24T03:50:31;16.11;83.25
71291;DHT22;59073;51.994;4.448;2022-09-24T03:52:56;16.09;83.10
71291;DHT22;59073;51.994;4.448;2022-09-24T03:55:22;16.08;83.28
71291;DHT22;59073;51.994;4.448;2022-09-24T03:57:47;16.12;82.95
71291;DHT22;59073;51.994;4.448;2022-09-24T04:00:13;16.25;83.17
71291;DHT22;59073;51.994;4.448;2022-09-24T04:02:38;16.33;82.93
71291;DHT22;59073;51.994;4.448;2022-09-24T04:05:05;16.38;82.43
71291;DHT22;59073;51.994;4.448;2022-09-24T04:07:31;16.39;82.25
71291;DHT22;59073;51.994;4.448;2022-09-24T04:09:57;16.38;82.18
71291;DHT22;59073;51.994;4.448;2022-09-24T04:12:22;16.40;82.24
71291;DHT22;59073;51.994;4.448;2022-09-24T04:14:47;16.40;82.16
71291;DHT22;59073;51.994;4.448;2022-09-24T04:17:13;16.39;82.21
71291;DHT22;59073;51.994;4.448;2022-09-24T04:19:39;16.45;82.24
71291;DHT22;59073;51.994;4.448;2022-09-24T04:22:04;16.52;82.20
71291;DHT22;59073;51.994;4.448;2022-09-24T04:24:30;16.57;81.91
71291;DHT22;59073;51.994;4.448;2022-09-24T04:26:55;16.60;81.92
71291;DHT22;59073;51.994;4.448;2022-09-24T04:29:21;16.60;81.90
71291;DHT22;59073;51.994;4.448;2022-09-24T04:31:46;16.63;81.87
71291;DHT22;59073;51.994;4.448;2022-09-24T04:34:11;16.60;81.82
71291;DHT22;59073;51.994;4.448;2022-09-24T04:36:37;16.67;81.49
71291;DHT22;59073;51.994;4.448;2022-09-24T04:39:02;16.67;80.80
71291;DHT22;59073;51.994;4.448;2022-09-24T04:41:28;16.50;81.18
71291;DHT22;59073;51.994;4.448;2022-09-24T04:43:55;16.11;82.95
71291;DHT22;59073;51.994;4.448;2022-09-24T04:46:21;15.71;84.60
71291;DHT22;59073;51.994;4.448;2022-09-24T04:48:47;15.41;85.87
71291;DHT22;59073;51.994;4.448;2022-09-24T04:51:13;15.43;85.91
71291;DHT22;59073;51.994;4.448;2022-09-24T04:53:38;15.44;85.77
71291;DHT22;59073;51.994;4.448;2022-09-24T04:56:04;15.19;86.57
71291;DHT22;59073;51.994;4.448;2022-09-24T04:58:30;15.13;87.21
71291;DHT22;59073;51.994;4.448;2022-09-24T05:00:56;15.09;87.33
71291;DHT22;59073;51.994;4.448;2022-09-24T05:03:21;15.18;87.21
71291;DHT22;59073;51.994;4.448;2022-09-24T05:05:47;15.33;86.58
71291;DHT22;59073;51.994;4.448;2022-09-24T05:08:14;15.26;86.73
71291;DHT22;59073;51.994;4.448;2022-09-24T05:10:40;15.29;86.64
71291;DHT22;59073;51.994;4.448;2022-09-24T05:13:06;15.33;86.43
71291;DHT22;59073;51.994;4.448;2022-09-24T05:15:31;15.23;86.65
71291;DHT22;59073;51.994;4.448;2022-09-24T05:17:57;15.18;87.08
71291;DHT22;59073;51.994;4.448;2022-09-24T05:20:23;15.09;87.52
71291;DHT22;59073;51.994;4.448;2022-09-24T05:22:49;15.13;87.20
71291;DHT22;59073;51.994;4.448;2022-09-24T05:25:19;15.18;87.01
71291;DHT22;59073;51.994;4.448;2022-09-24T05:27:50;15.12;87.35
71291;DHT22;59073;51.994;4.448;2022-09-24T05:30:21;15.19;87.22
71291;DHT22;59073;51.994;4.448;2022-09-24T05:32:47;15.02;87.61
71291;DHT22;59073;51.994;4.448;2022-09-24T05:35:23;15.06;87.81
71291;DHT22;59073;51.994;4.448;2022-09-24T05:37:48;15.04;88.00
71291;DHT22;59073;51.994;4.448;2022-09-24T05:40:14;15.04;88.10
71291;DHT22;59073;51.994;4.448;2022-09-24T05:43:00;15.04;88.42
71291;DHT22;59073;51.994;4.448;2022-09-24T05:45:29;14.95;88.19
71291;DHT22;59073;51.994;4.448;2022-09-24T05:47:54;15.02;87.93
71291;DHT22;59073;51.994;4.448;2022-09-24T05:50:20;14.99;87.90
71291;DHT22;59073;51.994;4.448;2022-09-24T05:52:45;14.96;87.55
71291;DHT22;59073;51.994;4.448;2022-09-24T05:55:11;15.09;87.47
71291;DHT22;59073;51.994;4.448;2022-09-24T05:57:37;15.18;86.62
71291;DHT22;59073;51.994;4.448;2022-09-24T06:00:04;15.13;86.34
71291;DHT22;59073;51.994;4.448;2022-09-24T06:02:29;15.13;86.22
71291;DHT22;59073;51.994;4.448;2022-09-24T06:04:55;15.07;86.19
71291;DHT22;59073;51.994;4.448;2022-09-24T06:07:20;15.12;85.86
71291;DHT22;59073;51.994;4.448;2022-09-24T06:09:49;15.10;85.90
71291;DHT22;59073;51.994;4.448;2022-09-24T06:12:17;15.09;85.46
71291;DHT22;59073;51.994;4.448;2022-09-24T06:14:43;15.06;85.26
71291;DHT22;59073;51.994;4.448;2022-09-24T06:17:09;14.90;85.74
71291;DHT22;59073;51.994;4.448;2022-09-24T06:19:34;14.95;86.02
71291;DHT22;59073;51.994;4.448;2022-09-24T06:22:00;14.88;86.25
71291;DHT22;59073;51.994;4.448;2022-09-24T06:24:26;14.98;86.71
71291;DHT22;59073;51.994;4.448;2022-09-24T06:26:51;14.99;86.74
71291;DHT22;59073;51.994;4.448;2022-09-24T06:29:17;14.85;87.33
71291;DHT22;59073;51.994;4.448;2022-09-24T06:31:42;14.82;87.28
71291;DHT22;59073;51.994;4.448;2022-09-24T06:34:09;14.83;87.59
71291;DHT22;59073;51.994;4.448;2022-09-24T06:36:34;14.75;87.59
71291;DHT22;59073;51.994;4.448;2022-09-24T06:39:00;15.00;87.30
71291;DHT22;59073;51.994;4.448;2022-09-24T06:41:25;15.12;86.71
71291;DHT22;59073;51.994;4.448;2022-09-24T06:43:53;15.19;86.48
71291;DHT22;59073;51.994;4.448;2022-09-24T06:46:18;15.06;86.41
71291;DHT22;59073;51.994;4.448;2022-09-24T06:48:44;15.16;86.07
71291;DHT22;59073;51.994;4.448;2022-09-24T06:51:12;14.96;86.13
71291;DHT22;59073;51.994;4.448;2022-09-24T06:53:37;15.03;86.41
71291;DHT22;59073;51.994;4.448;2022-09-24T06:56:03;15.04;86.35
71291;DHT22;59073;51.994;4.448;2022-09-24T06:58:28;15.10;86.21
71291;DHT22;59073;51.994;4.448;2022-09-24T07:00:57;15.14;86.22
71291;DHT22;59073;51.994;4.448;2022-09-24T07:03:24;15.06;85.90
71291;DHT22;59073;51.994;4.448;2022-09-24T07:05:50;15.14;86.15
71291;DHT22;59073;51.994;4.448;2022-09-24T07:08:19;14.98;86.27
71291;DHT22;59073;51.994;4.448;2022-09-24T07:10:46;15.10;86.50
71291;DHT22;59073;51.994;4.448;2022-09-24T07:13:14;15.06;86.26
71291;DHT22;59073;51.994;4.448;2022-09-24T07:15:41;15.03;86.41
71291;DHT22;59073;51.994;4.448;2022-09-24T07:18:07;14.99;86.14
71291;DHT22;59073;51.994;4.448;2022-09-24T07:20:32;14.82;86.93
71291;DHT22;59073;51.994;4.448;2022-09-24T07:23:02;14.81;87.03
71291;DHT22;59073;51.994;4.448;2022-09-24T07:25:27;14.76;87.49
71291;DHT22;59073;51.994;4.448;2022-09-24T07:27:53;14.88;87.62
71291;DHT22;59073;51.994;4.448;2022-09-24T07:30:18;14.69;87.67
71291;DHT22;59073;51.994;4.448;2022-09-24T07:32:44;14.58;88.50
71291;DHT22;59073;51.994;4.448;2022-09-24T07:35:09;14.57;88.75
71291;DHT22;59073;51.994;4.448;2022-09-24T07:37:35;14.49;88.64
71291;DHT22;59073;51.994;4.448;2022-09-24T07:40:00;14.52;89.23
71291;DHT22;59073;51.994;4.448;2022-09-24T07:42:26;14.61;88.71
71291;DHT22;59073;51.994;4.448;2022-09-24T07:44:53;14.46;89.18
71291;DHT22;59073;51.994;4.448;2022-09-24T07:47:21;14.41;89.26
71291;DHT22;59073;51.994;4.448;2022-09-24T07:49:47;14.22;90.15
71291;DHT22;59073;51.994;4.448;2022-09-24T07:52:12;14.28;90.15
71291;DHT22;59073;51.994;4.448;2022-09-24T07:54:37;14.18;90.28
71291;DHT22;59073;51.994;4.448;2022-09-24T07:57:09;14.03;90.51
71291;DHT22;59073;51.994;4.448;2022-09-24T07:59:40;14.07;90.62
71291;DHT22;59073;51.994;4.448;2022-09-24T08:02:14;14.22;90.81
71291;DHT22;59073;51.994;4.448;2022-09-24T08:04:41;14.24;90.27
71291;DHT22;59073;51.994;4.448;2022-09-24T08:07:07;14.27;90.01
71291;DHT22;59073;51.994;4.448;2022-09-24T08:09:32;14.20;90.12
71291;DHT22;59073;51.994;4.448;2022-09-24T08:12:06;14.13;89.99
71291;DHT22;59073;51.994;4.448;2022-09-24T08:14:37;14.17;90.06
71291;DHT22;59073;51.994;4.448;2022-09-24T08:17:02;14.30;89.90
71291;DHT22;59073;51.994;4.448;2022-09-24T08:19:28;14.18;89.46
71291;DHT22;59073;51.994;4.448;2022-09-24T08:21:55;14.30;89.07
71291;DHT22;59073;51.994;4.448;2022-09-24T08:24:21;14.40;88.38
71291;DHT22;59073;51.994;4.448;2022-09-24T08:26:47;14.37;87.83
71291;DHT22;59073;51.994;4.448;2022-09-24T08:29:12;14.51;88.03
71291;DHT22;59073;51.994;4.448;2022-09-24T08:31:38;14.46;87.98
71291;DHT22;59073;51.994;4.448;2022-09-24T08:34:06;14.52;87.46
71291;DHT22;59073;51.994;4.448;2022-09-24T08:36:31;14.67;87.76
71291;DHT22;59073;51.994;4.448;2022-09-24T08:39:06;14.52;87.06
71291;DHT22;59073;51.994;4.448;2022-09-24T08:41:57;14.68;87.06
71291;DHT22;59073;51.994;4.448;2022-09-24T08:51:34;14.96;87.08
71291;DHT22;59073;51.994;4.448;2022-09-24T08:54:14;14.90;85.97
71291;DHT22;59073;51.994;4.448;2022-09-24T08:56:45;14.82;86.22
71291;DHT22;59073;51.994;4.448;2022-09-24T08:59:23;14.96;86.62
71291;DHT22;59073;51.994;4.448;2022-09-24T09:04:44;15.34;85.84
71291;DHT22;59073;51.994;4.448;2022-09-24T09:07:24;15.31;84.69
71291;DHT22;59073;51.994;4.448;2022-09-24T09:10:06;15.16;84.64
71291;DHT22;59073;51.994;4.448;2022-09-24T09:12:45;15.10;84.10
71291;DHT22;59073;51.994;4.448;2022-09-24T09:15:34;15.19;83.74
71291;DHT22;59073;51.994;4.448;2022-09-24T09:18:15;15.24;83.37
71291;DHT22;59073;51.994;4.448;2022-09-24T09:20:44;15.44;83.71
71291;DHT22;59073;51.994;4.448;2022-09-24T09:25:48;15.49;83.05
71291;DHT22;59073;51.994;4.448;2022-09-24T09:28:25;15.55;82.62
71291;DHT22;59073;51.994;4.448;2022-09-24T09:30:55;15.50;81.82
71291;DHT22;59073;51.994;4.448;2022-09-24T09:39:47;15.71;80.54
71291;DHT22;59073;51.994;4.448;2022-09-24T09:42:30;15.47;79.73
71291;DHT22;59073;51.994;4.448;2022-09-24T09:45:21;15.44;79.68
71291;DHT22;59073;51.994;4.448;2022-09-24T09:47:53;15.41;79.44
71291;DHT22;59073;51.994;4.448;2022-09-24T09:50:35;15.31;78.97
71291;DHT22;59073;51.994;4.448;2022-09-24T09:53:02;15.33;80.00
71291;DHT22;59073;51.994;4.448;2022-09-24T09:55:35;15.47;79.78
71291;DHT22;59073;51.994;4.448;2022-09-24T09:58:18;15.58;78.98
71291;DHT22;59073;51.994;4.448;2022-09-24T10:00:49;15.54;78.99
71291;DHT22;59073;51.994;4.448;2022-09-24T10:03:28;15.47;78.37
71291;DHT22;59073;51.994;4.448;2022-09-24T10:06:01;15.49;79.02
71291;DHT22;59073;51.994;4.448;2022-09-24T10:08:28;15.62;79.42
71291;DHT22;59073;51.994;4.448;2022-09-24T10:11:01;15.57;78.79
71291;DHT22;59073;51.994;4.448;2022-09-24T10:13:28;15.49;78.45
71291;DHT22;59073;51.994;4.448;2022-09-24T10:15:58;15.57;77.97
71291;DHT22;59073;51.994;4.448;2022-09-24T10:18:32;15.67;78.25
71291;DHT22;59073;51.994;4.448;2022-09-24T10:21:03;15.58;78.42
71291;DHT22;59073;51.994;4.448;2022-09-24T10:23:39;15.80;79.16
71291;DHT22;59073;51.994;4.448;2022-09-24T10:26:07;15.71;76.62
71291;DHT22;59073;51.994;4.448;2022-09-24T10:28:39;15.60;75.41
71291;DHT22;59073;51.994;4.448;2022-09-24T10:31:29;15.57;76.27
71291;DHT22;59073;51.994;4.448;2022-09-24T10:33:58;15.54;75.71
71291;DHT22;59073;51.994;4.448;2022-09-24T10:36:27;15.60;75.84
71291;DHT22;59073;51.994;4.448;2022-09-24T10:39:11;15.67;75.12
71291;DHT22;59073;51.994;4.448;2022-09-24T10:41:48;15.61;75.36
71291;DHT22;59073;51.994;4.448;2022-09-24T10:44:15;15.81;74.47
71291;DHT22;59073;51.994;4.448;2022-09-24T10:47:02;15.75;74.21
71291;DHT22;59073;51.994;4.448;2022-09-24T11:06:07;16.09;72.06
71291;DHT22;59073;51.994;4.448;2022-09-24T11:11:29;16.23;72.78
71291;DHT22;59073;51.994;4.448;2022-09-24T11:33:51;16.12;70.84
71291;DHT22;59073;51.994;4.448;2022-09-24T11:39:13;16.42;70.56
71291;DHT22;59073;51.994;4.448;2022-09-24T11:42:00;16.28;69.00
71291;DHT22;59073;51.994;4.448;2022-09-24T11:48:29;16.32;68.69
71291;DHT22;59073;51.994;4.448;2022-09-24T11:50:30;16.48;69.49
71291;DHT22;59073;51.994;4.448;2022-09-24T11:53:16;16.56;70.52
71291;DHT22;59073;51.994;4.448;2022-09-24T11:55:54;16.52;69.26
71291;DHT22;59073;51.994;4.448;2022-09-24T11:58:34;16.64;69.43
71291;DHT22;59073;51.994;4.448;2022-09-24T12:01:11;16.77;68.85
71291;DHT22;59073;51.994;4.448;2022-09-24T12:03:45;16.91;67.77
71291;DHT22;59073;51.994;4.448;2022-09-24T12:06:19;16.81;68.16
71291;DHT22;59073;51.994;4.448;2022-09-24T12:09:06;16.63;68.31
71291;DHT22;59073;51.994;4.448;2022-09-24T12:11:50;16.62;68.53
71291;DHT22;59073;51.994;4.448;2022-09-24T12:14:24;16.50;69.12
71291;DHT22;59073;51.994;4.448;2022-09-24T12:16:57;16.55;69.88
71291;DHT22;59073;51.994;4.448;2022-09-24T12:19:24;16.52;70.05
71291;DHT22;59073;51.994;4.448;2022-09-24T12:21:53;16.62;71.40
71291;DHT22;59073;51.994;4.448;2022-09-24T12:24:29;16.40;72.54
71291;DHT22;59073;51.994;4.448;2022-09-24T12:27:00;16.45;72.83
71291;DHT22;59073;51.994;4.448;2022-09-24T12:29:35;16.32;73.50
71291;DHT22;59073;51.994;4.448;2022-09-24T12:37:50;16.21;74.48
71291;DHT22;59073;51.994;4.448;2022-09-24T12:43:33;16.33;74.93
71291;DHT22;59073;51.994;4.448;2022-09-24T12:46:05;16.49;74.65
71291;DHT22;59073;51.994;4.448;2022-09-24T12:48:36;16.60;73.88
71291;DHT22;59073;51.994;4.448;2022-09-24T12:51:05;16.71;73.13
71291;DHT22;59073;51.994;4.448;2022-09-24T12:53:40;16.76;72.59
71291;DHT22;59073;51.994;4.448;2022-09-24T12:56:08;16.83;73.55
71291;DHT22;59073;51.994;4.448;2022-09-24T13:03:35;17.08;71.89
71291;DHT22;59073;51.994;4.448;2022-09-24T13:06:19;17.12;72.18
71291;DHT22;59073;51.994;4.448;2022-09-24T13:08:45;17.04;72.25
71291;DHT22;59073;51.994;4.448;2022-09-24T13:11:32;16.87;69.74
71291;DHT22;59073;51.994;4.448;2022-09-24T13:16:45;17.01;69.81
71291;DHT22;59073;51.994;4.448;2022-09-24T13:19:32;16.93;69.27
71291;DHT22;59073;51.994;4.448;2022-09-24T13:21:59;16.95;68.85
71291;DHT22;59073;51.994;4.448;2022-09-24T13:24:28;16.97;69.54
71291;DHT22;59073;51.994;4.448;2022-09-24T13:27:07;17.08;69.07
71291;DHT22;59073;51.994;4.448;2022-09-24T13:29:37;17.08;68.49
71291;DHT22;59073;51.994;4.448;2022-09-24T13:32:03;17.11;68.49
71291;DHT22;59073;51.994;4.448;2022-09-24T13:34:31;17.21;69.27
71291;DHT22;59073;51.994;4.448;2022-09-24T13:42:07;17.34;68.27
71291;DHT22;59073;51.994;4.448;2022-09-24T13:44:42;17.48;66.44
71291;DHT22;59073;51.994;4.448;2022-09-24T13:47:23;17.27;65.88
71291;DHT22;59073;51.994;4.448;2022-09-24T13:50:02;17.30;65.56
71291;DHT22;59073;51.994;4.448;2022-09-24T13:52:38;17.46;64.87
71291;DHT22;59073;51.994;4.448;2022-09-24T13:55:17;17.34;63.75
71291;DHT22;59073;51.994;4.448;2022-09-24T13:57:46;17.28;64.18
71291;DHT22;59073;51.994;4.448;2022-09-24T14:02:44;17.30;63.69
71291;DHT22;59073;51.994;4.448;2022-09-24T14:05:17;17.49;64.96
71291;DHT22;59073;51.994;4.448;2022-09-24T14:08:16;17.38;62.67
71291;DHT22;59073;51.994;4.448;2022-09-24T14:10:43;17.27;64.04
71291;DHT22;59073;51.994;4.448;2022-09-24T14:16:06;17.20;63.66
71291;DHT22;59073;51.994;4.448;2022-09-24T14:18:31;17.41;62.73
71291;DHT22;59073;51.994;4.448;2022-09-24T14:21:03;17.42;62.65
71291;DHT22;59073;51.994;4.448;2022-09-24T14:23:46;17.34;63.71
71291;DHT22;59073;51.994;4.448;2022-09-24T14:26:35;17.28;63.73
71291;DHT22;59073;51.994;4.448;2022-09-24T14:29:13;17.21;62.83
71291;DHT22;59073;51.994;4.448;2022-09-24T14:31:59;17.17;63.16
71291;DHT22;59073;51.994;4.448;2022-09-24T14:37:19;17.27;61.73
71291;DHT22;59073;51.994;4.448;2022-09-24T14:39:47;17.28;60.22
71291;DHT22;59073;51.994;4.448;2022-09-24T14:42:21;17.41;61.17
71291;DHT22;59073;51.994;4.448;2022-09-24T14:44:50;17.21;58.97
71291;DHT22;59073;51.994;4.448;2022-09-24T14:47:26;17.38;59.88
71291;DHT22;59073;51.994;4.448;2022-09-24T14:49:51;17.21;58.67
71291;DHT22;59073;51.994;4.448;2022-09-24T14:52:33;17.34;57.59
71291;DHT22;59073;51.994;4.448;2022-09-24T14:55:18;17.38;58.33
71291;DHT22;59073;51.994;4.448;2022-09-24T14:57:46;17.45;58.94
71291;DHT22;59073;51.994;4.448;2022-09-24T15:00:22;17.38;59.30
71291;DHT22;59073;51.994;4.448;2022-09-24T15:02:57;17.51;60.15
71291;DHT22;59073;51.994;4.448;2022-09-24T15:05:28;17.42;60.38
71291;DHT22;59073;51.994;4.448;2022-09-24T15:08:24;17.32;59.75
71291;DHT22;59073;51.994;4.448;2022-09-24T15:11:03;17.58;59.40
71291;DHT22;59073;51.994;4.448;2022-09-24T15:13:35;17.51;58.88
71291;DHT22;59073;51.994;4.448;2022-09-24T15:16:47;17.52;60.45
71291;DHT22;59073;51.994;4.448;2022-09-24T15:18:57;17.53;59.76
71291;DHT22;59073;51.994;4.448;2022-09-24T15:21:25;17.56;60.80
71291;DHT22;59073;51.994;4.448;2022-09-24T15:23:52;17.48;58.95
71291;DHT22;59073;51.994;4.448;2022-09-24T15:26:17;17.48;59.75
71291;DHT22;59073;51.994;4.448;2022-09-24T15:28:44;17.51;60.27
71291;DHT22;59073;51.994;4.448;2022-09-24T15:31:10;17.80;61.32
71291;DHT22;59073;51.994;4.448;2022-09-24T15:33:35;17.85;59.70
71291;DHT22;59073;51.994;4.448;2022-09-24T15:36:01;17.76;60.73
71291;DHT22;59073;51.994;4.448;2022-09-24T15:38:26;17.52;60.48
71291;DHT22;59073;51.994;4.448;2022-09-24T15:40:52;17.48;60.88
71291;DHT22;59073;51.994;4.448;2022-09-24T15:43:22;17.49;60.76
71291;DHT22;59073;51.994;4.448;2022-09-24T15:45:49;17.65;62.09
71291;DHT22;59073;51.994;4.448;2022-09-24T15:48:15;17.66;61.21
71291;DHT22;59073;51.994;4.448;2022-09-24T15:50:43;17.59;60.67
71291;DHT22;59073;51.994;4.448;2022-09-24T15:53:19;17.55;60.33
71291;DHT22;59073;51.994;4.448;2022-09-24T15:55:47;17.69;61.72
71291;DHT22;59073;51.994;4.448;2022-09-24T15:58:15;17.49;60.86
71291;DHT22;59073;51.994;4.448;2022-09-24T16:00:41;17.31;61.12
71291;DHT22;59073;51.994;4.448;2022-09-24T16:03:16;17.51;62.10
71291;DHT22;59073;51.994;4.448;2022-09-24T16:05:43;17.45;61.59
71291;DHT22;59073;51.994;4.448;2022-09-24T16:08:09;17.24;61.21
71291;DHT22;59073;51.994;4.448;2022-09-24T16:10:34;17.27;62.02
71291;DHT22;59073;51.994;4.448;2022-09-24T16:13:00;17.39;61.32
71291;DHT22;59073;51.994;4.448;2022-09-24T16:15:25;17.36;62.30
71291;DHT22;59073;51.994;4.448;2022-09-24T16:17:51;17.24;62.30
71291;DHT22;59073;51.994;4.448;2022-09-24T16:20:17;17.17;62.25
71291;DHT22;59073;51.994;4.448;2022-09-24T16:22:42;17.10;62.88
71291;DHT22;59073;51.994;4.448;2022-09-24T16:25:08;17.10;63.10
71291;DHT22;59073;51.994;4.448;2022-09-24T16:27:33;17.00;62.87
71291;DHT22;59073;51.994;4.448;2022-09-24T16:30:00;16.90;62.14
71291;DHT22;59073;51.994;4.448;2022-09-24T16:32:26;16.87;61.80
71291;DHT22;59073;51.994;4.448;2022-09-24T16:34:51;16.88;61.59
71291;DHT22;59073;51.994;4.448;2022-09-24T16:37:19;16.70;61.40
71291;DHT22;59073;51.994;4.448;2022-09-24T16:39:45;16.73;61.86
71291;DHT22;59073;51.994;4.448;2022-09-24T16:42:10;16.71;60.80
71291;DHT22;59073;51.994;4.448;2022-09-24T16:44:36;16.62;61.01
71291;DHT22;59073;51.994;4.448;2022-09-24T16:47:01;16.69;61.59
71291;DHT22;59073;51.994;4.448;2022-09-24T16:49:27;16.69;62.27
71291;DHT22;59073;51.994;4.448;2022-09-24T16:51:52;16.67;61.86
71291;DHT22;59073;51.994;4.448;2022-09-24T16:54:18;16.56;61.63
71291;DHT22;59073;51.994;4.448;2022-09-24T16:56:47;16.40;62.06
71291;DHT22;59073;51.994;4.448;2022-09-24T16:59:14;16.39;62.59
71291;DHT22;59073;51.994;4.448;2022-09-24T17:01:40;16.52;62.97
71291;DHT22;59073;51.994;4.448;2022-09-24T17:04:07;16.40;63.69
71291;DHT22;59073;51.994;4.448;2022-09-24T17:06:32;16.19;64.40
71291;DHT22;59073;51.994;4.448;2022-09-24T17:08:58;16.19;64.99
71291;DHT22;59073;51.994;4.448;2022-09-24T17:11:43;16.29;65.37
71291;DHT22;59073;51.994;4.448;2022-09-24T17:14:12;16.34;65.17
71291;DHT22;59073;51.994;4.448;2022-09-24T17:16:40;16.21;65.93
71291;DHT22;59073;51.994;4.448;2022-09-24T17:19:07;16.15;66.35
71291;DHT22;59073;51.994;4.448;2022-09-24T17:21:34;16.04;67.05
71291;DHT22;59073;51.994;4.448;2022-09-24T17:23:59;15.91;67.22
71291;DHT22;59073;51.994;4.448;2022-09-24T17:26:25;15.81;67.66
71291;DHT22;59073;51.994;4.448;2022-09-24T17:28:52;15.71;67.61
71291;DHT22;59073;51.994;4.448;2022-09-24T17:31:22;15.65;68.04
71291;DHT22;59073;51.994;4.448;2022-09-24T17:33:59;15.51;68.12
71291;DHT22;59073;51.994;4.448;2022-09-24T17:36:26;15.57;67.97
71291;DHT22;59073;51.994;4.448;2022-09-24T17:38:53;15.47;68.07
71291;DHT22;59073;51.994;4.448;2022-09-24T17:41:20;15.47;68.19